sensor_id;sensor_type;location;lat;lon;timestamp;pressure;altitude;pressure_sealevel;temperature;humidity
53932;BME280;39844;52.496;13.482;2023-01-10T00:02:12;100520.28;;;6.87;87.98
53932;BME280;39844;52.496;13.482;2023-01-10T00:04:37;100521.16;;;6.87;87.75
53932;BME280;39844;52.496;13.482;2023-01-10T00:07:03;100521.16;;;6.86;87.89
53932;BME280;39844;52.496;13.482;2023-01-10T00:09:28;100522.88;;;6.87;87.88
53932;BME280;39844;52.496;13.482;2023-01-10T00:11:53;100522.88;;;6.87;88.04
53932;BME280;39844;52.496;13.482;2023-01-10T00:14:19;100523.78;;;6.87;88.28
53932;BME280;39844;52.496;13.482;2023-01-10T00:16:44;100533.31;;;6.87;87.90
53932;BME280;39844;52.496;13.482;2023-01-10T00:19:09;100528.09;;;6.87;88.46
53932;BME280;39844;52.496;13.482;2023-01-10T00:21:35;100538.53;;;6.87;88.84
53932;BME280;39844;52.496;13.482;2023-01-10T00:24:01;100533.31;;;6.87;88.97
53932;BME280;39844;52.496;13.482;2023-01-10T00:26:26;100533.31;;;6.87;89.02
53932;BME280;39844;52.496;13.482;2023-01-10T00:28:52;100545.50;;;6.86;89.43
53932;BME280;39844;52.496;13.482;2023-01-10T00:31:17;100536.81;;;6.86;89.49
53932;BME280;39844;52.496;13.482;2023-01-10T00:33:42;100532.44;;;6.85;89.45
53932;BME280;39844;52.496;13.482;2023-01-10T00:36:08;100537.66;;;6.86;89.60
53932;BME280;39844;52.496;13.482;2023-01-10T00:38:34;100535.09;;;6.88;89.23
53932;BME280;39844;52.496;13.482;2023-01-10T00:41:00;100540.31;;;6.88;89.69
53932;BME280;39844;52.496;13.482;2023-01-10T00:43:26;100543.81;;;6.91;89.18
53932;BME280;39844;52.496;13.482;2023-01-10T00:45:51;100547.28;;;6.92;89.08
53932;BME280;39844;52.496;13.482;2023-01-10T00:48:17;100556.88;;;6.93;89.15
53932;BME280;39844;52.496;13.482;2023-01-10T00:50:42;100555.13;;;6.95;89.31
53932;BME280;39844;52.496;13.482;2023-01-10T00:53:08;100557.75;;;6.95;89.30
53932;BME280;39844;52.496;13.482;2023-01-10T00:55:34;100562.97;;;6.95;88.88
53932;BME280;39844;52.496;13.482;2023-01-10T00:58:00;100569.06;;;6.97;88.86
53932;BME280;39844;52.496;13.482;2023-01-10T01:00:25;100567.38;;;6.99;88.34
53932;BME280;39844;52.496;13.482;2023-01-10T01:02:50;100573.47;;;7.01;88.13
53932;BME280;39844;52.496;13.482;2023-01-10T01:05:17;100576.94;;;7.02;88.20
53932;BME280;39844;52.496;13.482;2023-01-10T01:07:42;100581.28;;;7.03;87.84
53932;BME280;39844;52.496;13.482;2023-01-10T01:10:08;100590.00;;;7.05;87.94
53932;BME280;39844;52.496;13.482;2023-01-10T01:12:33;100592.63;;;7.06;87.50
53932;BME280;39844;52.496;13.482;2023-01-10T01:14:58;100602.19;;;7.07;87.54
53932;BME280;39844;52.496;13.482;2023-01-10T01:17:24;100600.47;;;7.08;87.46
53932;BME280;39844;52.496;13.482;2023-01-10T01:19:49;100615.28;;;7.09;87.54
53932;BME280;39844;52.496;13.482;2023-01-10T01:22:14;100615.28;;;7.09;87.46
53932;BME280;39844;52.496;13.482;2023-01-10T01:24:40;100624.00;;;7.09;87.30
53932;BME280;39844;52.496;13.482;2023-01-10T01:27:06;100630.06;;;7.10;87.39
53932;BME280;39844;52.496;13.482;2023-01-10T01:29:31;100637.03;;;7.09;87.41
53932;BME280;39844;52.496;13.482;2023-01-10T01:31:56;100638.75;;;7.09;87.70
53932;BME280;39844;52.496;13.482;2023-01-10T01:34:21;100653.53;;;7.08;87.72
53932;BME280;39844;52.496;13.482;2023-01-10T01:36:47;100653.53;;;7.08;87.22
53932;BME280;39844;52.496;13.482;2023-01-10T01:39:12;100667.44;;;7.07;87.43
53932;BME280;39844;52.496;13.482;2023-01-10T01:41:37;100675.28;;;7.07;87.20
53932;BME280;39844;52.496;13.482;2023-01-10T01:44:12;100672.66;;;7.07;87.13
53932;BME280;39844;52.496;13.482;2023-01-10T01:46:40;100670.03;;;7.06;87.39
53932;BME280;39844;52.496;13.482;2023-01-10T01:49:13;100672.66;;;7.04;87.32
53932;BME280;39844;52.496;13.482;2023-01-10T01:51:40;100675.25;;;7.04;87.44
53932;BME280;39844;52.496;13.482;2023-01-10T01:54:08;100688.31;;;7.04;87.33
53932;BME280;39844;52.496;13.482;2023-01-10T01:59:09;100688.28;;;7.01;87.54
53932;BME280;39844;52.496;13.482;2023-01-10T02:01:37;100684.78;;;6.99;87.93
53932;BME280;39844;52.496;13.482;2023-01-10T02:04:16;100690.84;;;6.96;87.94
53932;BME280;39844;52.496;13.482;2023-01-10T02:06:44;100702.13;;;6.95;88.48
53932;BME280;39844;52.496;13.482;2023-01-10T02:11:38;100719.47;;;6.92;88.41
53932;BME280;39844;52.496;13.482;2023-01-10T02:14:04;100706.44;;;6.90;88.39
53932;BME280;39844;52.496;13.482;2023-01-10T02:16:30;100698.56;;;6.86;88.65
53932;BME280;39844;52.496;13.482;2023-01-10T02:18:56;100707.19;;;6.82;88.94
53932;BME280;39844;52.496;13.482;2023-01-10T02:21:37;100708.91;;;6.80;89.23
53932;BME280;39844;52.496;13.482;2023-01-10T02:32:11;100733.22;;;6.76;90.13
53932;BME280;39844;52.496;13.482;2023-01-10T02:40:28;100734.03;;;6.72;90.29
53932;BME280;39844;52.496;13.482;2023-01-10T02:45:28;100747.03;;;6.66;90.79
53932;BME280;39844;52.496;13.482;2023-01-10T02:47:55;100746.16;;;6.67;91.22
53932;BME280;39844;52.496;13.482;2023-01-10T02:52:52;100747.91;;;6.68;90.92
53932;BME280;39844;52.496;13.482;2023-01-10T02:55:20;100754.84;;;6.69;90.64
53932;BME280;39844;52.496;13.482;2023-01-10T02:58:17;100755.75;;;6.69;90.41
53932;BME280;39844;52.496;13.482;2023-01-10T03:01:12;100749.63;;;6.67;90.59
53932;BME280;39844;52.496;13.482;2023-01-10T03:06:47;100763.56;;;6.69;91.05
53932;BME280;39844;52.496;13.482;2023-01-10T03:11:46;100774.91;;;6.73;90.91
53932;BME280;39844;52.496;13.482;2023-01-10T03:14:24;100787.09;;;6.74;91.07
53932;BME280;39844;52.496;13.482;2023-01-10T03:17:11;100806.28;;;6.76;91.10
53932;BME280;39844;52.496;13.482;2023-01-10T03:19:45;100819.31;;;6.77;91.01
53932;BME280;39844;52.496;13.482;2023-01-10T03:22:13;100813.22;;;6.77;91.59
53932;BME280;39844;52.496;13.482;2023-01-10T03:24:42;100825.41;;;6.78;91.64
53932;BME280;39844;52.496;13.482;2023-01-10T03:30:06;100824.53;;;6.79;92.68
53932;BME280;39844;52.496;13.482;2023-01-10T03:32:34;100831.50;;;6.78;92.80
53932;BME280;39844;52.496;13.482;2023-01-10T03:35:00;100829.75;;;6.79;92.76
53932;BME280;39844;52.496;13.482;2023-01-10T03:37:37;100838.47;;;6.78;92.88
53932;BME280;39844;52.496;13.482;2023-01-10T03:42:47;100838.47;;;6.78;93.06
53932;BME280;39844;52.496;13.482;2023-01-10T03:45:13;100848.00;;;6.79;93.42
53932;BME280;39844;52.496;13.482;2023-01-10T03:47:41;100848.84;;;6.76;93.51
53932;BME280;39844;52.496;13.482;2023-01-10T03:50:20;100848.84;;;6.76;93.83
53932;BME280;39844;52.496;13.482;2023-01-10T03:52:46;100854.94;;;6.77;93.91
53932;BME280;39844;52.496;13.482;2023-01-10T03:55:14;100859.28;;;6.76;94.13
53932;BME280;39844;52.496;13.482;2023-01-10T03:57:42;100865.38;;;6.77;93.91
53932;BME280;39844;52.496;13.482;2023-01-10T04:00:08;100874.09;;;6.79;94.02
53932;BME280;39844;52.496;13.482;2023-01-10T04:02:34;100895.91;;;6.81;93.88
53932;BME280;39844;52.496;13.482;2023-01-10T04:04:59;100888.06;;;6.81;93.79
53932;BME280;39844;52.496;13.482;2023-01-10T04:07:25;100893.28;;;6.82;94.11
53932;BME280;39844;52.496;13.482;2023-01-10T04:09:51;100902.84;;;6.82;94.25
53932;BME280;39844;52.496;13.482;2023-01-10T04:12:16;100896.75;;;6.81;94.34
53932;BME280;39844;52.496;13.482;2023-01-10T04:14:42;100910.69;;;6.82;94.58
53932;BME280;39844;52.496;13.482;2023-01-10T04:17:07;100916.75;;;6.81;94.93
53932;BME280;39844;52.496;13.482;2023-01-10T04:19:33;100921.97;;;6.81;94.98
53932;BME280;39844;52.496;13.482;2023-01-10T04:21:58;100929.81;;;6.81;94.93
53932;BME280;39844;52.496;13.482;2023-01-10T04:24:23;100931.50;;;6.79;95.11
53932;BME280;39844;52.496;13.482;2023-01-10T04:26:49;100937.59;;;6.79;95.53
53932;BME280;39844;52.496;13.482;2023-01-10T04:29:14;100938.47;;;6.80;95.51
53932;BME280;39844;52.496;13.482;2023-01-10T04:31:39;100955.00;;;6.80;95.55
53932;BME280;39844;52.496;13.482;2023-01-10T04:34:06;100955.91;;;6.81;95.21
53932;BME280;39844;52.496;13.482;2023-01-10T04:36:32;100967.19;;;6.81;95.36
53932;BME280;39844;52.496;13.482;2023-01-10T04:38:57;100971.56;;;6.81;95.46
53932;BME280;39844;52.496;13.482;2023-01-10T04:41:22;100966.34;;;6.82;95.27
53932;BME280;39844;52.496;13.482;2023-01-10T04:43:48;100974.16;;;6.82;95.26
53932;BME280;39844;52.496;13.482;2023-01-10T04:46:13;100975.06;;;6.83;94.97
53932;BME280;39844;52.496;13.482;2023-01-10T04:48:38;100979.41;;;6.84;94.79
53932;BME280;39844;52.496;13.482;2023-01-10T04:51:04;100988.09;;;6.83;94.59
53932;BME280;39844;52.496;13.482;2023-01-10T04:53:29;100983.72;;;6.82;94.76
53932;BME280;39844;52.496;13.482;2023-01-10T04:56:00;101005.47;;;6.82;95.04
53932;BME280;39844;52.496;13.482;2023-01-10T04:58:26;101008.94;;;6.81;95.30
53932;BME280;39844;52.496;13.482;2023-01-10T05:00:51;101005.47;;;6.81;95.24
53932;BME280;39844;52.496;13.482;2023-01-10T05:03:16;101013.28;;;6.81;95.29
53932;BME280;39844;52.496;13.482;2023-01-10T05:05:42;101020.25;;;6.82;95.03
53932;BME280;39844;52.496;13.482;2023-01-10T05:08:07;101030.69;;;6.82;94.90
53932;BME280;39844;52.496;13.482;2023-01-10T05:10:32;101037.63;;;6.81;95.57
53932;BME280;39844;52.496;13.482;2023-01-10T05:12:58;101034.16;;;6.81;95.24
53932;BME280;39844;52.496;13.482;2023-01-10T05:15:23;101038.50;;;6.82;95.24
53932;BME280;39844;52.496;13.482;2023-01-10T05:17:48;101041.13;;;6.82;95.68
53932;BME280;39844;52.496;13.482;2023-01-10T05:20:14;101052.41;;;6.81;95.55
53932;BME280;39844;52.496;13.482;2023-01-10T05:22:39;101046.34;;;6.82;95.84
53932;BME280;39844;52.496;13.482;2023-01-10T05:25:05;101056.75;;;6.80;96.53
53932;BME280;39844;52.496;13.482;2023-01-10T05:27:30;101070.69;;;6.81;96.75
53932;BME280;39844;52.496;13.482;2023-01-10T05:29:56;101074.13;;;6.80;97.38
53932;BME280;39844;52.496;13.482;2023-01-10T05:32:21;101077.59;;;6.79;97.45
53932;BME280;39844;52.496;13.482;2023-01-10T05:34:47;101073.25;;;6.78;97.36
53932;BME280;39844;52.496;13.482;2023-01-10T05:37:12;101075.84;;;6.78;96.99
53932;BME280;39844;52.496;13.482;2023-01-10T05:39:37;101088.00;;;6.77;97.02
53932;BME280;39844;52.496;13.482;2023-01-10T05:42:03;101096.72;;;6.78;96.65
53932;BME280;39844;52.496;13.482;2023-01-10T05:44:28;101098.44;;;6.79;96.52
53932;BME280;39844;52.496;13.482;2023-01-10T05:46:53;101105.44;;;6.80;96.81
53932;BME280;39844;52.496;13.482;2023-01-10T05:49:19;101102.84;;;6.81;96.95
53932;BME280;39844;52.496;13.482;2023-01-10T05:51:44;101107.22;;;6.81;96.43
53932;BME280;39844;52.496;13.482;2023-01-10T05:54:09;101114.16;;;6.82;96.50
53932;BME280;39844;52.496;13.482;2023-01-10T05:56:34;101116.78;;;6.82;96.58
53932;BME280;39844;52.496;13.482;2023-01-10T05:59:00;101119.38;;;6.82;96.24
53932;BME280;39844;52.496;13.482;2023-01-10T06:01:25;101117.66;;;6.82;96.24
53932;BME280;39844;52.496;13.482;2023-01-10T06:03:50;101128.97;;;6.83;96.33
53932;BME280;39844;52.496;13.482;2023-01-10T06:06:16;101132.44;;;6.82;95.82
53932;BME280;39844;52.496;13.482;2023-01-10T06:08:41;101133.31;;;6.84;95.66
53932;BME280;39844;52.496;13.482;2023-01-10T06:11:06;101150.75;;;6.83;95.32
53932;BME280;39844;52.496;13.482;2023-01-10T06:13:32;101149.03;;;6.85;95.24
53932;BME280;39844;52.496;13.482;2023-01-10T06:15:58;101156.88;;;6.87;94.85
53932;BME280;39844;52.496;13.482;2023-01-10T06:18:23;101162.97;;;6.87;94.96
53932;BME280;39844;52.496;13.482;2023-01-10T06:20:49;101170.84;;;6.89;94.72
53932;BME280;39844;52.496;13.482;2023-01-10T06:23:14;101163.03;;;6.90;94.60
53932;BME280;39844;52.496;13.482;2023-01-10T06:25:39;101172.63;;;6.91;94.63
53932;BME280;39844;52.496;13.482;2023-01-10T06:28:06;101180.47;;;6.91;94.58
53932;BME280;39844;52.496;13.482;2023-01-10T06:30:32;101183.94;;;6.92;94.20
53932;BME280;39844;52.496;13.482;2023-01-10T06:33:01;101189.13;;;6.92;94.15
53932;BME280;39844;52.496;13.482;2023-01-10T06:35:27;101197.84;;;6.91;94.17
53932;BME280;39844;52.496;13.482;2023-01-10T06:37:52;101198.72;;;6.91;93.62
53932;BME280;39844;52.496;13.482;2023-01-10T06:40:18;101203.06;;;6.92;93.83
53932;BME280;39844;52.496;13.482;2023-01-10T06:42:43;101208.22;;;6.89;93.61
53932;BME280;39844;52.496;13.482;2023-01-10T06:45:09;101217.00;;;6.93;93.35
53932;BME280;39844;52.496;13.482;2023-01-10T06:47:35;101223.13;;;6.93;92.98
53932;BME280;39844;52.496;13.482;2023-01-10T06:50:00;101222.22;;;6.93;92.95
53932;BME280;39844;52.496;13.482;2023-01-10T06:52:25;101226.63;;;6.95;92.81
53932;BME280;39844;52.496;13.482;2023-01-10T06:54:50;101230.13;;;6.96;92.80
53932;BME280;39844;52.496;13.482;2023-01-10T06:57:16;101233.56;;;6.95;93.00
53932;BME280;39844;52.496;13.482;2023-01-10T06:59:41;101245.78;;;6.96;93.08
53932;BME280;39844;52.496;13.482;2023-01-10T07:02:09;101246.63;;;6.95;93.15
53932;BME280;39844;52.496;13.482;2023-01-10T07:04:35;101245.72;;;6.94;93.41
53932;BME280;39844;52.496;13.482;2023-01-10T07:07:00;101249.22;;;6.95;93.39
53932;BME280;39844;52.496;13.482;2023-01-10T07:09:26;101251.84;;;6.95;93.33
53932;BME280;39844;52.496;13.482;2023-01-10T07:11:52;101261.38;;;6.94;93.15
53932;BME280;39844;52.496;13.482;2023-01-10T07:14:17;101262.28;;;6.95;92.84
53932;BME280;39844;52.496;13.482;2023-01-10T07:16:42;101259.66;;;6.95;92.83
53932;BME280;39844;52.496;13.482;2023-01-10T07:19:08;101276.13;;;6.92;93.05
53932;BME280;39844;52.496;13.482;2023-01-10T07:21:34;101286.56;;;6.91;93.48
53932;BME280;39844;52.496;13.482;2023-01-10T07:23:59;101290.91;;;6.90;93.39
53932;BME280;39844;52.496;13.482;2023-01-10T07:26:24;101287.41;;;6.90;93.69
53932;BME280;39844;52.496;13.482;2023-01-10T07:28:50;101288.28;;;6.89;93.29
53932;BME280;39844;52.496;13.482;2023-01-10T07:31:16;101296.13;;;6.90;93.18
53932;BME280;39844;52.496;13.482;2023-01-10T07:33:42;101300.44;;;6.90;93.24
53932;BME280;39844;52.496;13.482;2023-01-10T07:36:07;101302.16;;;6.88;93.01
53932;BME280;39844;52.496;13.482;2023-01-10T07:38:33;101311.75;;;6.89;93.29
53932;BME280;39844;52.496;13.482;2023-01-10T07:41:00;101320.41;;;6.88;93.36
53932;BME280;39844;52.496;13.482;2023-01-10T07:43:26;101321.25;;;6.87;93.38
53932;BME280;39844;52.496;13.482;2023-01-10T07:45:51;101328.19;;;6.85;93.56
53932;BME280;39844;52.496;13.482;2023-01-10T07:48:16;101318.56;;;6.84;93.58
53932;BME280;39844;52.496;13.482;2023-01-10T07:50:42;101335.13;;;6.84;93.48
53932;BME280;39844;52.496;13.482;2023-01-10T07:53:08;101338.63;;;6.85;93.58
53932;BME280;39844;52.496;13.482;2023-01-10T07:55:35;101343.75;;;6.82;93.13
53932;BME280;39844;52.496;13.482;2023-01-10T07:58:00;101344.66;;;6.82;93.33
53932;BME280;39844;52.496;13.482;2023-01-10T08:00:26;101355.97;;;6.83;93.56
53932;BME280;39844;52.496;13.482;2023-01-10T08:02:52;101362.03;;;6.82;93.51
53932;BME280;39844;52.496;13.482;2023-01-10T08:05:18;101362.94;;;6.84;93.46
53932;BME280;39844;52.496;13.482;2023-01-10T08:07:43;101371.69;;;6.86;93.37
53932;BME280;39844;52.496;13.482;2023-01-10T08:10:09;101380.44;;;6.88;93.56
53932;BME280;39844;52.496;13.482;2023-01-10T08:12:34;101378.72;;;6.90;92.95
53932;BME280;39844;52.496;13.482;2023-01-10T08:15:00;101375.28;;;6.91;92.73
53932;BME280;39844;52.496;13.482;2023-01-10T08:17:25;101377.91;;;6.92;93.04
53932;BME280;39844;52.496;13.482;2023-01-10T08:19:50;101389.31;;;6.96;92.81
53932;BME280;39844;52.496;13.482;2023-01-10T08:22:16;101394.53;;;6.96;92.93
53932;BME280;39844;52.496;13.482;2023-01-10T08:24:41;101401.50;;;6.97;92.62
53932;BME280;39844;52.496;13.482;2023-01-10T08:27:06;101406.72;;;6.97;92.71
53932;BME280;39844;52.496;13.482;2023-01-10T08:29:32;101409.31;;;6.97;92.16
53932;BME280;39844;52.496;13.482;2023-01-10T08:31:57;101409.31;;;6.97;92.70
53932;BME280;39844;52.496;13.482;2023-01-10T08:34:22;101418.03;;;6.97;92.94
53932;BME280;39844;52.496;13.482;2023-01-10T08:36:52;101409.38;;;6.98;92.48
53932;BME280;39844;52.496;13.482;2023-01-10T08:39:18;101407.66;;;6.99;92.72
53932;BME280;39844;52.496;13.482;2023-01-10T08:41:43;101416.34;;;6.99;92.22
53932;BME280;39844;52.496;13.482;2023-01-10T08:44:09;101413.78;;;7.01;92.44
53932;BME280;39844;52.496;13.482;2023-01-10T08:46:34;101420.75;;;7.02;92.05
53932;BME280;39844;52.496;13.482;2023-01-10T08:48:59;101445.16;;;7.04;91.72
53932;BME280;39844;52.496;13.482;2023-01-10T08:51:25;101434.72;;;7.04;91.43
53932;BME280;39844;52.496;13.482;2023-01-10T08:53:50;101440.84;;;7.06;91.70
53932;BME280;39844;52.496;13.482;2023-01-10T08:56:15;101434.72;;;7.04;91.21
53932;BME280;39844;52.496;13.482;2023-01-10T08:58:40;101441.69;;;7.05;91.28
53932;BME280;39844;52.496;13.482;2023-01-10T09:01:06;101433.03;;;7.06;91.37
53932;BME280;39844;52.496;13.482;2023-01-10T09:03:32;101441.84;;;7.11;91.24
53932;BME280;39844;52.496;13.482;2023-01-10T09:05:58;101452.28;;;7.13;90.72
53932;BME280;39844;52.496;13.482;2023-01-10T09:08:24;101459.31;;;7.15;90.83
53932;BME280;39844;52.496;13.482;2023-01-10T09:10:49;101454.19;;;7.20;90.92
53932;BME280;39844;52.496;13.482;2023-01-10T09:13:14;101461.19;;;7.22;90.71
53932;BME280;39844;52.496;13.482;2023-01-10T09:15:41;101454.34;;;7.27;90.39
53932;BME280;39844;52.496;13.482;2023-01-10T09:18:06;101458.81;;;7.33;90.32
53932;BME280;39844;52.496;13.482;2023-01-10T09:20:33;101464.13;;;7.36;89.96
53932;BME280;39844;52.496;13.482;2023-01-10T09:23:07;101474.56;;;7.37;89.93
53932;BME280;39844;52.496;13.482;2023-01-10T09:25:32;101469.41;;;7.39;89.59
53932;BME280;39844;52.496;13.482;2023-01-10T09:27:59;101470.28;;;7.39;89.69
53932;BME280;39844;52.496;13.482;2023-01-10T09:30:26;101471.13;;;7.38;88.53
53932;BME280;39844;52.496;13.482;2023-01-10T09:32:53;101465.84;;;7.35;88.57
53932;BME280;39844;52.496;13.482;2023-01-10T09:35:18;101476.34;;;7.38;89.21
53932;BME280;39844;52.496;13.482;2023-01-10T09:37:44;101479.94;;;7.43;89.27
53932;BME280;39844;52.496;13.482;2023-01-10T09:40:15;101485.19;;;7.45;87.95
53932;BME280;39844;52.496;13.482;2023-01-10T09:43:07;101487.84;;;7.46;87.79
53932;BME280;39844;52.496;13.482;2023-01-10T09:48:59;101500.03;;;7.46;87.44
53932;BME280;39844;52.496;13.482;2023-01-10T09:54:05;101499.19;;;7.48;87.41
53932;BME280;39844;52.496;13.482;2023-01-10T09:56:35;101507.03;;;7.48;88.04
53932;BME280;39844;52.496;13.482;2023-01-10T09:59:00;101513.06;;;7.46;88.22
53932;BME280;39844;52.496;13.482;2023-01-10T10:01:29;101506.03;;;7.42;88.95
53932;BME280;39844;52.496;13.482;2023-01-10T10:06:49;101517.25;;;7.38;89.49
53932;BME280;39844;52.496;13.482;2023-01-10T10:09:19;101515.59;;;7.41;89.57
53932;BME280;39844;52.496;13.482;2023-01-10T10:14:46;101506.06;;;7.43;88.86
53932;BME280;39844;52.496;13.482;2023-01-10T10:21:26;101501.13;;;7.57;89.14
53932;BME280;39844;52.496;13.482;2023-01-10T10:24:03;101507.25;;;7.59;88.50
53932;BME280;39844;52.496;13.482;2023-01-10T10:26:33;101508.16;;;7.59;88.47
53932;BME280;39844;52.496;13.482;2023-01-10T10:36:46;101523.13;;;7.68;87.67
53932;BME280;39844;52.496;13.482;2023-01-10T10:39:36;101520.47;;;7.67;87.34
53932;BME280;39844;52.496;13.482;2023-01-10T10:42:05;101528.25;;;7.63;86.98
53932;BME280;39844;52.496;13.482;2023-01-10T10:44:55;101534.28;;;7.61;87.34
53932;BME280;39844;52.496;13.482;2023-01-10T10:47:34;101540.41;;;7.61;87.50
53932;BME280;39844;52.496;13.482;2023-01-10T10:50:30;101530.84;;;7.62;87.41
53932;BME280;39844;52.496;13.482;2023-01-10T10:52:59;101535.19;;;7.61;86.75
53932;BME280;39844;52.496;13.482;2023-01-10T10:55:32;101536.09;;;7.63;86.29
53932;BME280;39844;52.496;13.482;2023-01-10T10:57:59;101541.31;;;7.63;85.53
53932;BME280;39844;52.496;13.482;2023-01-10T11:00:27;101540.47;;;7.64;86.04
53932;BME280;39844;52.496;13.482;2023-01-10T11:05:42;101556.94;;;7.60;83.68
53932;BME280;39844;52.496;13.482;2023-01-10T11:08:11;101557.75;;;7.58;83.46
53932;BME280;39844;52.496;13.482;2023-01-10T11:10:39;101570.78;;;7.56;83.15
53932;BME280;39844;52.496;13.482;2023-01-10T11:15:50;101559.53;;;7.60;83.67
53932;BME280;39844;52.496;13.482;2023-01-10T11:18:22;101566.53;;;7.61;83.76
53932;BME280;39844;52.496;13.482;2023-01-10T11:23:21;101536.09;;;7.63;82.74
53932;BME280;39844;52.496;13.482;2023-01-10T11:25:47;101543.94;;;7.63;83.27
53932;BME280;39844;52.496;13.482;2023-01-10T11:28:13;101542.22;;;7.65;82.97
53932;BME280;39844;52.496;13.482;2023-01-10T11:30:39;101551.97;;;7.73;83.56
53932;BME280;39844;52.496;13.482;2023-01-10T11:33:07;101548.56;;;7.77;82.67
53932;BME280;39844;52.496;13.482;2023-01-10T11:35:55;101560.00;;;7.82;82.50
53932;BME280;39844;52.496;13.482;2023-01-10T11:38:21;101560.97;;;7.87;81.36
53932;BME280;39844;52.496;13.482;2023-01-10T11:43:36;101544.63;;;7.97;79.86
53932;BME280;39844;52.496;13.482;2023-01-10T11:48:50;101551.00;;;8.11;79.64
53932;BME280;39844;52.496;13.482;2023-01-10T11:51:21;101560.69;;;8.16;79.76
53932;BME280;39844;52.496;13.482;2023-01-10T11:53:51;101562.53;;;8.22;79.12
53932;BME280;39844;52.496;13.482;2023-01-10T11:56:26;101560.94;;;8.27;78.98
53932;BME280;39844;52.496;13.482;2023-01-10T11:58:53;101570.50;;;8.26;77.79
53932;BME280;39844;52.496;13.482;2023-01-10T12:01:28;101569.63;;;8.26;78.05
53932;BME280;39844;52.496;13.482;2023-01-10T12:03:54;101569.63;;;8.26;78.09
53932;BME280;39844;52.496;13.482;2023-01-10T12:06:20;101572.22;;;8.26;77.76
53932;BME280;39844;52.496;13.482;2023-01-10T12:08:45;101574.06;;;8.29;78.55
53932;BME280;39844;52.496;13.482;2023-01-10T12:13:50;101575.94;;;8.36;78.38
53932;BME280;39844;52.496;13.482;2023-01-10T12:16:21;101559.34;;;8.37;78.25
53932;BME280;39844;52.496;13.482;2023-01-10T12:18:48;101568.06;;;8.36;77.86
53932;BME280;39844;52.496;13.482;2023-01-10T12:21:15;101571.56;;;8.36;77.66
53932;BME280;39844;52.496;13.482;2023-01-10T12:23:44;101555.59;;;9.23;77.00
53932;BME280;39844;52.496;13.482;2023-01-10T12:26:12;101541.16;;;11.23;68.03
53932;BME280;39844;52.496;13.482;2023-01-10T12:28:45;101543.34;;;12.11;61.73
53932;BME280;39844;52.496;13.482;2023-01-10T12:31:13;101559.91;;;11.79;61.72
53932;BME280;39844;52.496;13.482;2023-01-10T12:33:45;101547.66;;;11.86;60.35
53932;BME280;39844;52.496;13.482;2023-01-10T12:44:22;101566.97;;;10.66;63.95
53932;BME280;39844;52.496;13.482;2023-01-10T12:52:33;101585.25;;;9.23;69.02
53932;BME280;39844;52.496;13.482;2023-01-10T12:55:01;101588.41;;;9.03;69.24
53932;BME280;39844;52.496;13.482;2023-01-10T12:57:34;101590.84;;;8.89;70.60
53932;BME280;39844;52.496;13.482;2023-01-10T13:00:02;101589.88;;;8.85;71.43
53932;BME280;39844;52.496;13.482;2023-01-10T13:02:37;101591.59;;;8.83;71.62
53932;BME280;39844;52.496;13.482;2023-01-10T13:05:04;101605.53;;;8.81;71.86
53932;BME280;39844;52.496;13.482;2023-01-10T13:07:32;101603.78;;;8.81;72.68
53932;BME280;39844;52.496;13.482;2023-01-10T13:10:03;101608.91;;;8.75;72.32
53932;BME280;39844;52.496;13.482;2023-01-10T13:12:35;101610.56;;;8.70;72.82
53932;BME280;39844;52.496;13.482;2023-01-10T13:15:08;101614.00;;;8.66;73.40
53932;BME280;39844;52.496;13.482;2023-01-10T13:17:44;101613.09;;;8.66;73.14
53932;BME280;39844;52.496;13.482;2023-01-10T13:23:18;101621.78;;;8.63;72.75
53932;BME280;39844;52.496;13.482;2023-01-10T13:25:54;101620.88;;;8.61;73.28
53932;BME280;39844;52.496;13.482;2023-01-10T13:28:23;101627.84;;;8.61;73.13
53932;BME280;39844;52.496;13.482;2023-01-10T13:30:53;101627.78;;;8.58;72.79
53932;BME280;39844;52.496;13.482;2023-01-10T13:33:22;101626.88;;;8.56;73.32
53932;BME280;39844;52.496;13.482;2023-01-10T13:35:49;101634.69;;;8.54;73.54
53932;BME280;39844;52.496;13.482;2023-01-10T13:38:51;101645.06;;;8.48;73.11
53932;BME280;39844;52.496;13.482;2023-01-10T13:41:19;101638.88;;;8.45;73.61
53932;BME280;39844;52.496;13.482;2023-01-10T13:46:33;101652.66;;;8.36;73.82
53932;BME280;39844;52.496;13.482;2023-01-10T13:51:25;101654.19;;;8.26;74.97
53932;BME280;39844;52.496;13.482;2023-01-10T13:58:53;101646.13;;;8.16;75.64
53932;BME280;39844;52.496;13.482;2023-01-10T14:01:27;101644.28;;;8.12;75.97
53932;BME280;39844;52.496;13.482;2023-01-10T14:03:55;101647.75;;;8.11;76.61
53932;BME280;39844;52.496;13.482;2023-01-10T14:08:56;101644.22;;;8.09;76.48
53932;BME280;39844;52.496;13.482;2023-01-10T14:11:25;101646.88;;;8.10;76.89
53932;BME280;39844;52.496;13.482;2023-01-10T14:13:57;101646.06;;;8.13;76.23
53932;BME280;39844;52.496;13.482;2023-01-10T14:16:35;101657.44;;;8.16;76.17
53932;BME280;39844;52.496;13.482;2023-01-10T14:19:05;101660.06;;;8.16;75.26
53932;BME280;39844;52.496;13.482;2023-01-10T14:21:40;101664.44;;;8.16;75.17
53932;BME280;39844;52.496;13.482;2023-01-10T14:24:21;101657.34;;;8.12;75.17
53932;BME280;39844;52.496;13.482;2023-01-10T14:26:48;101651.19;;;8.08;75.27
53932;BME280;39844;52.496;13.482;2023-01-10T14:29:15;101650.16;;;8.02;75.45
53932;BME280;39844;52.496;13.482;2023-01-10T14:31:46;101654.41;;;7.97;75.72
53932;BME280;39844;52.496;13.482;2023-01-10T14:34:24;101663.91;;;7.93;75.91
53932;BME280;39844;52.496;13.482;2023-01-10T14:39:28;101653.28;;;7.84;76.00
53932;BME280;39844;52.496;13.482;2023-01-10T14:42:01;101655.88;;;7.83;76.24